Istanbul, Istanbul Samand?ra Army Air Base (LTBX)

NameIstanbul Samand?ra Army Air Base
CityIstanbul
CountryTurkey
ICAOLTBX
IATA
Altitude123 m
CoordinatesGoogle Map
Live Air TrafficLiveATC.net
METARLTBX 171150Z 01019KT 9999 BKN030 24/14 Q1021
2018-09-17 11:50:00 Wind: North (10°) 9.77 m/s - Visibility: > 10000 m - Temperature: 24 °C - Dew point: 14 °C - Humidity: 53.7% - Pressure: 1021 hPa

Sorry, no flights used the airport in this database.